sensor_id;sensor_type;location;lat;lon;timestamp;pressure;altitude;pressure_sealevel;temperature;humidity
54936;BME280;40838;50.676;7.838;2023-03-14T00:00:49;96180.59;;;5.10;100.00
54936;BME280;40838;50.676;7.838;2023-03-14T00:03:17;96189.78;;;5.12;100.00
54936;BME280;40838;50.676;7.838;2023-03-14T00:05:44;96191.25;;;5.05;100.00
54936;BME280;40838;50.676;7.838;2023-03-14T00:08:11;96224.00;;;5.04;100.00
54936;BME280;40838;50.676;7.838;2023-03-14T00:10:38;96214.63;;;5.11;100.00
54936;BME280;40838;50.676;7.838;2023-03-14T00:13:05;96208.84;;;5.09;100.00
54936;BME280;40838;50.676;7.838;2023-03-14T00:15:33;96201.81;;;5.32;100.00
54936;BME280;40838;50.676;7.838;2023-03-14T00:18:00;96205.44;;;5.37;100.00
54936;BME280;40838;50.676;7.838;2023-03-14T00:20:28;96213.72;;;5.02;100.00
54936;BME280;40838;50.676;7.838;2023-03-14T00:22:55;96214.41;;;5.08;100.00
54936;BME280;40838;50.676;7.838;2023-03-14T00:25:22;96219.53;;;5.32;100.00
54936;BME280;40838;50.676;7.838;2023-03-14T00:27:50;96209.63;;;5.10;100.00
54936;BME280;40838;50.676;7.838;2023-03-14T00:30:17;96207.09;;;5.19;100.00
54936;BME280;40838;50.676;7.838;2023-03-14T00:32:45;96214.22;;;5.04;100.00
54936;BME280;40838;50.676;7.838;2023-03-14T00:35:12;96213.34;;;4.95;100.00
54936;BME280;40838;50.676;7.838;2023-03-14T00:37:40;96201.22;;;5.08;100.00
54936;BME280;40838;50.676;7.838;2023-03-14T00:40:08;96207.00;;;5.10;100.00
54936;BME280;40838;50.676;7.838;2023-03-14T00:42:36;96200.25;;;5.18;100.00
54936;BME280;40838;50.676;7.838;2023-03-14T00:45:03;96202.22;;;5.12;100.00
54936;BME280;40838;50.676;7.838;2023-03-14T00:47:34;96194.28;;;5.12;100.00
54936;BME280;40838;50.676;7.838;2023-03-14T00:50:01;96190.91;;;4.65;100.00
54936;BME280;40838;50.676;7.838;2023-03-14T00:52:27;96176.72;;;4.47;100.00
54936;BME280;40838;50.676;7.838;2023-03-14T00:54:56;96172.09;;;4.39;100.00
54936;BME280;40838;50.676;7.838;2023-03-14T00:57:23;96166.47;;;4.59;100.00
54936;BME280;40838;50.676;7.838;2023-03-14T00:59:51;96170.50;;;4.71;100.00
54936;BME280;40838;50.676;7.838;2023-03-14T01:02:18;96173.38;;;4.55;100.00
54936;BME280;40838;50.676;7.838;2023-03-14T01:04:47;96175.50;;;4.39;100.00
54936;BME280;40838;50.676;7.838;2023-03-14T01:07:14;96167.53;;;4.44;100.00
54936;BME280;40838;50.676;7.838;2023-03-14T01:09:41;96163.97;;;4.35;100.00
54936;BME280;40838;50.676;7.838;2023-03-14T01:12:10;96174.88;;;4.29;100.00
54936;BME280;40838;50.676;7.838;2023-03-14T01:14:37;96147.63;;;4.66;100.00
54936;BME280;40838;50.676;7.838;2023-03-14T01:17:04;96148.75;;;4.46;100.00
54936;BME280;40838;50.676;7.838;2023-03-14T01:19:32;96153.53;;;4.30;100.00
54936;BME280;40838;50.676;7.838;2023-03-14T01:21:58;96164.00;;;4.49;100.00
54936;BME280;40838;50.676;7.838;2023-03-14T01:24:25;96173.69;;;4.54;100.00
54936;BME280;40838;50.676;7.838;2023-03-14T01:26:53;96163.97;;;4.35;100.00
54936;BME280;40838;50.676;7.838;2023-03-14T01:29:23;96166.97;;;4.29;100.00
54936;BME280;40838;50.676;7.838;2023-03-14T01:31:50;96157.56;;;4.55;100.00
54936;BME280;40838;50.676;7.838;2023-03-14T01:34:17;96154.47;;;4.53;100.00
54936;BME280;40838;50.676;7.838;2023-03-14T01:36:45;96141.19;;;4.72;100.00
54936;BME280;40838;50.676;7.838;2023-03-14T01:39:12;96151.28;;;4.37;100.00
54936;BME280;40838;50.676;7.838;2023-03-14T01:41:39;96152.28;;;4.55;100.00
54936;BME280;40838;50.676;7.838;2023-03-14T01:44:09;96150.81;;;4.49;100.00
54936;BME280;40838;50.676;7.838;2023-03-14T01:46:39;96133.53;;;4.43;100.00
54936;BME280;40838;50.676;7.838;2023-03-14T01:49:16;96143.75;;;4.31;100.00
54936;BME280;40838;50.676;7.838;2023-03-14T01:51:53;96131.13;;;4.60;100.00
54936;BME280;40838;50.676;7.838;2023-03-14T01:54:25;96133.44;;;4.48;100.00
54936;BME280;40838;50.676;7.838;2023-03-14T01:56:57;96131.97;;;4.42;100.00
54936;BME280;40838;50.676;7.838;2023-03-14T01:59:30;96131.94;;;4.28;100.00
54936;BME280;40838;50.676;7.838;2023-03-14T02:02:01;96131.59;;;4.49;100.00
54936;BME280;40838;50.676;7.838;2023-03-14T02:04:33;96128.88;;;4.54;100.00
54936;BME280;40838;50.676;7.838;2023-03-14T02:07:09;96134.00;;;4.31;100.00
54936;BME280;40838;50.676;7.838;2023-03-14T02:09:48;96124.84;;;4.42;100.00
54936;BME280;40838;50.676;7.838;2023-03-14T02:12:22;96116.81;;;4.34;100.00
54936;BME280;40838;50.676;7.838;2023-03-14T02:15:10;96118.09;;;4.17;100.00
54936;BME280;40838;50.676;7.838;2023-03-14T02:17:51;96107.22;;;4.05;100.00
54936;BME280;40838;50.676;7.838;2023-03-14T02:20:31;96121.22;;;4.19;100.00
54936;BME280;40838;50.676;7.838;2023-03-14T02:23:01;96118.03;;;4.22;100.00
54936;BME280;40838;50.676;7.838;2023-03-14T02:25:35;96102.09;;;4.14;100.00
54936;BME280;40838;50.676;7.838;2023-03-14T02:28:06;96107.53;;;4.04;100.00
54936;BME280;40838;50.676;7.838;2023-03-14T02:30:35;96117.50;;;4.07;100.00
54936;BME280;40838;50.676;7.838;2023-03-14T02:33:05;96113.97;;;4.30;100.00
54936;BME280;40838;50.676;7.838;2023-03-14T02:35:40;96102.50;;;4.21;100.00
54936;BME280;40838;50.676;7.838;2023-03-14T02:38:15;96102.00;;;4.19;100.00
54936;BME280;40838;50.676;7.838;2023-03-14T02:40:44;96108.06;;;4.19;100.00
54936;BME280;40838;50.676;7.838;2023-03-14T02:43:13;96099.19;;;4.15;100.00
54936;BME280;40838;50.676;7.838;2023-03-14T02:45:47;96090.84;;;4.08;100.00
54936;BME280;40838;50.676;7.838;2023-03-14T02:48:19;96088.41;;;4.31;100.00
54936;BME280;40838;50.676;7.838;2023-03-14T02:50:48;96088.63;;;4.15;100.00
54936;BME280;40838;50.676;7.838;2023-03-14T02:53:21;96079.31;;;4.37;100.00
54936;BME280;40838;50.676;7.838;2023-03-14T02:55:50;96081.13;;;4.22;100.00
54936;BME280;40838;50.676;7.838;2023-03-14T02:58:21;96066.75;;;4.15;100.00
54936;BME280;40838;50.676;7.838;2023-03-14T03:00:53;96077.78;;;4.36;100.00
54936;BME280;40838;50.676;7.838;2023-03-14T03:03:23;96073.81;;;4.19;100.00
54936;BME280;40838;50.676;7.838;2023-03-14T03:05:51;96059.78;;;4.24;100.00
54936;BME280;40838;50.676;7.838;2023-03-14T03:08:18;96077.66;;;4.41;100.00
54936;BME280;40838;50.676;7.838;2023-03-14T03:10:47;96071.25;;;4.47;100.00
54936;BME280;40838;50.676;7.838;2023-03-14T03:13:15;96079.91;;;4.34;100.00
54936;BME280;40838;50.676;7.838;2023-03-14T03:15:45;96075.84;;;4.22;100.00
54936;BME280;40838;50.676;7.838;2023-03-14T03:18:12;96066.94;;;4.05;100.00
54936;BME280;40838;50.676;7.838;2023-03-14T03:20:41;96069.22;;;4.25;100.00
54936;BME280;40838;50.676;7.838;2023-03-14T03:23:08;96063.44;;;4.23;100.00
54936;BME280;40838;50.676;7.838;2023-03-14T03:25:37;96073.56;;;4.02;100.00
54936;BME280;40838;50.676;7.838;2023-03-14T03:28:04;96062.63;;;4.28;100.00
54936;BME280;40838;50.676;7.838;2023-03-14T03:30:37;96066.19;;;4.18;100.00
54936;BME280;40838;50.676;7.838;2023-03-14T03:33:06;96066.97;;;4.18;100.00
54936;BME280;40838;50.676;7.838;2023-03-14T03:35:42;96070.53;;;4.28;100.00
54936;BME280;40838;50.676;7.838;2023-03-14T03:38:11;96066.97;;;4.18;100.00
54936;BME280;40838;50.676;7.838;2023-03-14T03:40:38;96062.88;;;4.12;100.00
54936;BME280;40838;50.676;7.838;2023-03-14T03:43:07;96043.78;;;4.34;100.00
54936;BME280;40838;50.676;7.838;2023-03-14T03:45:38;96051.16;;;4.18;100.00
54936;BME280;40838;50.676;7.838;2023-03-14T03:48:07;96048.00;;;4.03;100.00
54936;BME280;40838;50.676;7.838;2023-03-14T03:50:35;96050.41;;;4.32;100.00
54936;BME280;40838;50.676;7.838;2023-03-14T03:53:02;96049.13;;;4.15;100.00
54936;BME280;40838;50.676;7.838;2023-03-14T03:55:29;96043.97;;;4.24;100.00
54936;BME280;40838;50.676;7.838;2023-03-14T03:57:56;96045.31;;;4.21;100.00
54936;BME280;40838;50.676;7.838;2023-03-14T04:00:23;96040.75;;;4.41;100.00
54936;BME280;40838;50.676;7.838;2023-03-14T04:02:50;96044.19;;;4.41;100.00
54936;BME280;40838;50.676;7.838;2023-03-14T04:05:36;96038.25;;;4.36;100.00
54936;BME280;40838;50.676;7.838;2023-03-14T04:08:07;96027.91;;;4.07;100.00
54936;BME280;40838;50.676;7.838;2023-03-14T04:10:35;96042.38;;;4.23;100.00
54936;BME280;40838;50.676;7.838;2023-03-14T04:13:16;96039.53;;;4.19;100.00
54936;BME280;40838;50.676;7.838;2023-03-14T04:15:48;96023.69;;;4.66;100.00
54936;BME280;40838;50.676;7.838;2023-03-14T04:18:22;96029.38;;;4.13;100.00
54936;BME280;40838;50.676;7.838;2023-03-14T04:20:53;96014.75;;;4.20;100.00
54936;BME280;40838;50.676;7.838;2023-03-14T04:23:24;96034.28;;;4.19;100.00
54936;BME280;40838;50.676;7.838;2023-03-14T04:25:52;96028.91;;;4.25;100.00
54936;BME280;40838;50.676;7.838;2023-03-14T04:28:20;96024.69;;;4.23;100.00
54936;BME280;40838;50.676;7.838;2023-03-14T04:30:47;96025.84;;;4.36;100.00
54936;BME280;40838;50.676;7.838;2023-03-14T04:33:19;96018.31;;;4.30;100.00
54936;BME280;40838;50.676;7.838;2023-03-14T04:35:55;96019.09;;;4.30;100.00
54936;BME280;40838;50.676;7.838;2023-03-14T04:38:22;96026.88;;;4.35;100.00
54936;BME280;40838;50.676;7.838;2023-03-14T04:40:50;96023.34;;;4.12;100.00
54936;BME280;40838;50.676;7.838;2023-03-14T04:43:18;96016.03;;;4.09;100.00
54936;BME280;40838;50.676;7.838;2023-03-14T04:45:52;96021.91;;;4.34;100.00
54936;BME280;40838;50.676;7.838;2023-03-14T04:48:19;96011.00;;;4.54;100.00
54936;BME280;40838;50.676;7.838;2023-03-14T04:50:47;96018.53;;;4.14;100.00
54936;BME280;40838;50.676;7.838;2023-03-14T04:53:17;96026.22;;;4.30;100.00
54936;BME280;40838;50.676;7.838;2023-03-14T04:55:48;96030.44;;;3.98;100.00
54936;BME280;40838;50.676;7.838;2023-03-14T04:58:15;96017.28;;;4.26;100.00
54936;BME280;40838;50.676;7.838;2023-03-14T05:00:43;96017.84;;;3.95;100.00
54936;BME280;40838;50.676;7.838;2023-03-14T05:03:36;96008.41;;;4.21;100.00
54936;BME280;40838;50.676;7.838;2023-03-14T05:06:17;96003.44;;;4.06;100.00
54936;BME280;40838;50.676;7.838;2023-03-14T05:09:02;95988.31;;;4.26;100.00
54936;BME280;40838;50.676;7.838;2023-03-14T05:11:52;95977.16;;;4.01;100.00
54936;BME280;40838;50.676;7.838;2023-03-14T05:14:37;95991.34;;;4.19;100.00
54936;BME280;40838;50.676;7.838;2023-03-14T05:17:27;95988.50;;;4.15;100.00
54936;BME280;40838;50.676;7.838;2023-03-14T05:20:17;95981.94;;;3.99;100.00
54936;BME280;40838;50.676;7.838;2023-03-14T05:22:53;95989.38;;;4.11;100.00
54936;BME280;40838;50.676;7.838;2023-03-14T05:25:44;95966.91;;;3.86;100.00
54936;BME280;40838;50.676;7.838;2023-03-14T05:28:14;95980.28;;;3.89;100.00
54936;BME280;40838;50.676;7.838;2023-03-14T05:31:01;95970.81;;;4.02;100.00
54936;BME280;40838;50.676;7.838;2023-03-14T05:33:49;95977.09;;;3.73;100.00
54936;BME280;40838;50.676;7.838;2023-03-14T05:36:51;95968.50;;;4.01;100.00
54936;BME280;40838;50.676;7.838;2023-03-14T05:39:34;95973.72;;;3.87;100.00
54936;BME280;40838;50.676;7.838;2023-03-14T05:42:21;95972.47;;;3.51;100.00
54936;BME280;40838;50.676;7.838;2023-03-14T05:44:51;95963.00;;;3.50;100.00
54936;BME280;40838;50.676;7.838;2023-03-14T05:47:36;95983.50;;;3.53;100.00
54936;BME280;40838;50.676;7.838;2023-03-14T05:50:15;95978.88;;;3.45;100.00
54936;BME280;40838;50.676;7.838;2023-03-14T05:52:53;95962.25;;;3.64;100.00
54936;BME280;40838;50.676;7.838;2023-03-14T05:55:51;95955.69;;;3.47;100.00
54936;BME280;40838;50.676;7.838;2023-03-14T05:58:29;95947.91;;;3.23;100.00
54936;BME280;40838;50.676;7.838;2023-03-14T06:01:19;95953.81;;;2.96;100.00
54936;BME280;40838;50.676;7.838;2023-03-14T06:04:08;95957.56;;;3.28;100.00
54936;BME280;40838;50.676;7.838;2023-03-14T06:06:36;95940.84;;;3.38;100.00
54936;BME280;40838;50.676;7.838;2023-03-14T06:09:04;95947.81;;;3.61;100.00
54936;BME280;40838;50.676;7.838;2023-03-14T06:11:33;95947.31;;;3.59;100.00
54936;BME280;40838;50.676;7.838;2023-03-14T06:14:03;95953.91;;;3.10;100.00
54936;BME280;40838;50.676;7.838;2023-03-14T06:16:30;95938.44;;;3.22;100.00
54936;BME280;40838;50.676;7.838;2023-03-14T06:18:58;95949.47;;;3.24;100.00
54936;BME280;40838;50.676;7.838;2023-03-14T06:21:26;95949.56;;;3.52;100.00
54936;BME280;40838;50.676;7.838;2023-03-14T06:23:54;95952.13;;;3.57;100.00
54936;BME280;40838;50.676;7.838;2023-03-14T06:26:21;95945.38;;;3.51;100.00
54936;BME280;40838;50.676;7.838;2023-03-14T06:28:49;95935.53;;;3.57;100.00
54936;BME280;40838;50.676;7.838;2023-03-14T06:31:17;95949.94;;;3.45;100.00
54936;BME280;40838;50.676;7.838;2023-03-14T06:33:52;95954.59;;;3.81;100.00
54936;BME280;40838;50.676;7.838;2023-03-14T06:36:20;95946.06;;;3.57;100.00
54936;BME280;40838;50.676;7.838;2023-03-14T06:38:49;95951.84;;;3.72;100.00
54936;BME280;40838;50.676;7.838;2023-03-14T06:41:16;95946.22;;;3.93;100.00
54936;BME280;40838;50.676;7.838;2023-03-14T06:43:46;95950.41;;;3.94;100.00
54936;BME280;40838;50.676;7.838;2023-03-14T06:46:13;95954.81;;;3.52;100.00
54936;BME280;40838;50.676;7.838;2023-03-14T06:48:43;95944.66;;;3.78;100.00
54936;BME280;40838;50.676;7.838;2023-03-14T06:51:11;95931.28;;;3.42;100.00
54936;BME280;40838;50.676;7.838;2023-03-14T06:53:38;95949.75;;;3.56;100.00
54936;BME280;40838;50.676;7.838;2023-03-14T06:56:08;95943.47;;;3.38;100.00
54936;BME280;40838;50.676;7.838;2023-03-14T06:58:35;95946.16;;;3.19;100.00
54936;BME280;40838;50.676;7.838;2023-03-14T07:01:05;95914.22;;;3.06;100.00
54936;BME280;40838;50.676;7.838;2023-03-14T07:03:38;95941.06;;;3.55;100.00
54936;BME280;40838;50.676;7.838;2023-03-14T07:06:07;95939.59;;;3.16;100.00
54936;BME280;40838;50.676;7.838;2023-03-14T07:08:34;95941.22;;;3.31;100.00
54936;BME280;40838;50.676;7.838;2023-03-14T07:11:01;95946.47;;;3.12;100.00
54936;BME280;40838;50.676;7.838;2023-03-14T07:13:29;95938.75;;;3.53;100.00
54936;BME280;40838;50.676;7.838;2023-03-14T07:16:07;95951.09;;;3.53;100.00
54936;BME280;40838;50.676;7.838;2023-03-14T07:18:35;95946.31;;;3.74;100.00
54936;BME280;40838;50.676;7.838;2023-03-14T07:21:04;95947.91;;;3.56;100.00
54936;BME280;40838;50.676;7.838;2023-03-14T07:23:33;95951.09;;;3.86;100.00
54936;BME280;40838;50.676;7.838;2023-03-14T07:26:00;95943.63;;;3.60;100.00
54936;BME280;40838;50.676;7.838;2023-03-14T07:28:28;95943.88;;;3.77;100.00
54936;BME280;40838;50.676;7.838;2023-03-14T07:31:03;95941.28;;;4.33;100.00
54936;BME280;40838;50.676;7.838;2023-03-14T07:33:32;95952.81;;;3.76;100.00
54936;BME280;40838;50.676;7.838;2023-03-14T07:36:00;95951.03;;;4.60;100.00
54936;BME280;40838;50.676;7.838;2023-03-14T07:38:27;95943.44;;;4.31;100.00
54936;BME280;40838;50.676;7.838;2023-03-14T07:41:14;95938.81;;;4.64;100.00
54936;BME280;40838;50.676;7.838;2023-03-14T07:43:59;95945.81;;;4.82;100.00
54936;BME280;40838;50.676;7.838;2023-03-14T07:46:26;95953.97;;;4.44;100.00
54936;BME280;40838;50.676;7.838;2023-03-14T07:48:53;95967.72;;;4.55;100.00
54936;BME280;40838;50.676;7.838;2023-03-14T07:51:20;95961.16;;;4.80;100.00
54936;BME280;40838;50.676;7.838;2023-03-14T07:53:47;95958.84;;;4.65;100.00
54936;BME280;40838;50.676;7.838;2023-03-14T07:56:15;95939.06;;;4.76;100.00
54936;BME280;40838;50.676;7.838;2023-03-14T07:58:42;95950.63;;;4.66;100.00
54936;BME280;40838;50.676;7.838;2023-03-14T08:01:09;95946.44;;;5.02;100.00
54936;BME280;40838;50.676;7.838;2023-03-14T08:03:36;95954.72;;;4.73;100.00
54936;BME280;40838;50.676;7.838;2023-03-14T08:06:03;95944.78;;;5.06;100.00
54936;BME280;40838;50.676;7.838;2023-03-14T08:08:29;95946.44;;;4.52;100.00
54936;BME280;40838;50.676;7.838;2023-03-14T08:11:02;95963.31;;;5.37;100.00
54936;BME280;40838;50.676;7.838;2023-03-14T08:13:31;95937.44;;;6.41;100.00
54936;BME280;40838;50.676;7.838;2023-03-14T08:15:59;95949.50;;;6.25;100.00
54936;BME280;40838;50.676;7.838;2023-03-14T08:18:26;95962.97;;;5.30;100.00
54936;BME280;40838;50.676;7.838;2023-03-14T08:20:53;95955.63;;;5.49;100.00
54936;BME280;40838;50.676;7.838;2023-03-14T08:23:19;95960.22;;;6.77;100.00
54936;BME280;40838;50.676;7.838;2023-03-14T08:25:48;95951.13;;;6.43;100.00
54936;BME280;40838;50.676;7.838;2023-03-14T08:28:15;95952.47;;;5.92;100.00
54936;BME280;40838;50.676;7.838;2023-03-14T08:30:43;95948.19;;;6.54;100.00
54936;BME280;40838;50.676;7.838;2023-03-14T08:33:10;95954.44;;;6.66;100.00
54936;BME280;40838;50.676;7.838;2023-03-14T08:35:37;95956.63;;;5.85;100.00
54936;BME280;40838;50.676;7.838;2023-03-14T08:38:04;95959.22;;;6.07;100.00
54936;BME280;40838;50.676;7.838;2023-03-14T08:40:31;95958.72;;;5.74;100.00
54936;BME280;40838;50.676;7.838;2023-03-14T08:42:58;95965.22;;;5.90;100.00
54936;BME280;40838;50.676;7.838;2023-03-14T08:45:25;95972.75;;;6.06;100.00
54936;BME280;40838;50.676;7.838;2023-03-14T08:47:54;95962.81;;;5.57;100.00
54936;BME280;40838;50.676;7.838;2023-03-14T08:50:21;95963.25;;;6.05;100.00
54936;BME280;40838;50.676;7.838;2023-03-14T08:52:48;95961.00;;;5.67;100.00
54936;BME280;40838;50.676;7.838;2023-03-14T08:55:15;95962.94;;;5.75;100.00
54936;BME280;40838;50.676;7.838;2023-03-14T08:57:42;95959.06;;;5.81;100.00
54936;BME280;40838;50.676;7.838;2023-03-14T09:00:10;95968.38;;;5.47;100.00
54936;BME280;40838;50.676;7.838;2023-03-14T09:02:39;95954.47;;;5.87;100.00
54936;BME280;40838;50.676;7.838;2023-03-14T09:05:08;95957.28;;;5.90;100.00
54936;BME280;40838;50.676;7.838;2023-03-14T09:07:35;95953.34;;;5.79;100.00
54936;BME280;40838;50.676;7.838;2023-03-14T09:10:02;95970.88;;;5.52;100.00
54936;BME280;40838;50.676;7.838;2023-03-14T09:12:30;95956.34;;;5.64;100.00
54936;BME280;40838;50.676;7.838;2023-03-14T09:14:57;95959.22;;;5.31;100.00
54936;BME280;40838;50.676;7.838;2023-03-14T09:17:23;95960.00;;;5.09;100.00
54936;BME280;40838;50.676;7.838;2023-03-14T09:19:50;95959.41;;;5.12;100.00
54936;BME280;40838;50.676;7.838;2023-03-14T09:22:18;95959.16;;;5.00;100.00
54936;BME280;40838;50.676;7.838;2023-03-14T09:24:45;95967.47;;;5.29;100.00
54936;BME280;40838;50.676;7.838;2023-03-14T09:27:12;95971.59;;;5.44;100.00
54936;BME280;40838;50.676;7.838;2023-03-14T09:29:39;95969.22;;;5.20;100.00
54936;BME280;40838;50.676;7.838;2023-03-14T09:32:07;95962.81;;;5.57;100.00
54936;BME280;40838;50.676;7.838;2023-03-14T09:34:34;95968.66;;;5.46;100.00
54936;BME280;40838;50.676;7.838;2023-03-14T09:37:00;95979.19;;;5.01;100.00
54936;BME280;40838;50.676;7.838;2023-03-14T09:39:29;95973.72;;;5.20;100.00
54936;BME280;40838;50.676;7.838;2023-03-14T09:41:57;95976.94;;;5.30;100.00
54936;BME280;40838;50.676;7.838;2023-03-14T09:44:30;95980.72;;;5.61;100.00
54936;BME280;40838;50.676;7.838;2023-03-14T09:47:01;95965.22;;;5.23;100.00
54936;BME280;40838;50.676;7.838;2023-03-14T09:49:31;95976.09;;;5.66;100.00
54936;BME280;40838;50.676;7.838;2023-03-14T09:52:01;95976.56;;;5.46;100.00
54936;BME280;40838;50.676;7.838;2023-03-14T09:54:35;95980.34;;;5.53;100.00
54936;BME280;40838;50.676;7.838;2023-03-14T09:57:05;95977.28;;;5.83;100.00
54936;BME280;40838;50.676;7.838;2023-03-14T09:59:33;95975.59;;;5.87;100.00
54936;BME280;40838;50.676;7.838;2023-03-14T10:02:13;95983.94;;;5.80;100.00
54936;BME280;40838;50.676;7.838;2023-03-14T10:04:41;95986.34;;;5.90;100.00
54936;BME280;40838;50.676;7.838;2023-03-14T10:07:13;95987.03;;;5.73;100.00
54936;BME280;40838;50.676;7.838;2023-03-14T10:09:44;95991.03;;;5.48;100.00
54936;BME280;40838;50.676;7.838;2023-03-14T10:12:11;95996.38;;;5.34;100.00
54936;BME280;40838;50.676;7.838;2023-03-14T10:14:45;96001.72;;;5.21;100.00
54936;BME280;40838;50.676;7.838;2023-03-14T10:17:13;96008.97;;;5.15;100.00
54936;BME280;40838;50.676;7.838;2023-03-14T10:19:51;96007.94;;;5.25;100.00
54936;BME280;40838;50.676;7.838;2023-03-14T10:22:18;96014.97;;;5.29;100.00
54936;BME280;40838;50.676;7.838;2023-03-14T10:24:51;96026.16;;;5.12;100.00
54936;BME280;40838;50.676;7.838;2023-03-14T10:27:20;96036.03;;;5.21;100.00
54936;BME280;40838;50.676;7.838;2023-03-14T10:29:53;96053.34;;;4.99;100.00
54936;BME280;40838;50.676;7.838;2023-03-14T10:32:21;96050.91;;;5.03;100.00
54936;BME280;40838;50.676;7.838;2023-03-14T10:37:55;96061.88;;;4.82;100.00
54936;BME280;40838;50.676;7.838;2023-03-14T10:40:27;96068.72;;;4.83;100.00
54936;BME280;40838;50.676;7.838;2023-03-14T10:42:55;96082.88;;;4.87;100.00
54936;BME280;40838;50.676;7.838;2023-03-14T10:45:36;96149.47;;;4.52;100.00
54936;BME280;40838;50.676;7.838;2023-03-14T10:48:18;96157.94;;;3.59;100.00
54936;BME280;40838;50.676;7.838;2023-03-14T10:50:53;96180.06;;;2.91;100.00
54936;BME280;40838;50.676;7.838;2023-03-14T10:53:21;96170.66;;;2.85;100.00
54936;BME280;40838;50.676;7.838;2023-03-14T10:55:49;96168.81;;;2.56;100.00
54936;BME280;40838;50.676;7.838;2023-03-14T10:58:25;96183.06;;;2.79;100.00
54936;BME280;40838;50.676;7.838;2023-03-14T11:01:02;96198.84;;;2.79;100.00
54936;BME280;40838;50.676;7.838;2023-03-14T11:03:32;96194.31;;;2.85;100.00
54936;BME280;40838;50.676;7.838;2023-03-14T11:06:06;96200.78;;;2.69;100.00
54936;BME280;40838;50.676;7.838;2023-03-14T11:08:43;96219.88;;;2.50;100.00
54936;BME280;40838;50.676;7.838;2023-03-14T11:11:19;96219.03;;;2.60;100.00
54936;BME280;40838;50.676;7.838;2023-03-14T11:13:57;96235.38;;;2.52;100.00
54936;BME280;40838;50.676;7.838;2023-03-14T11:16:34;96249.81;;;2.54;100.00
54936;BME280;40838;50.676;7.838;2023-03-14T11:19:19;96249.50;;;2.61;100.00
54936;BME280;40838;50.676;7.838;2023-03-14T11:21:54;96256.44;;;2.47;100.00
54936;BME280;40838;50.676;7.838;2023-03-14T11:24:44;96268.13;;;2.25;100.00
54936;BME280;40838;50.676;7.838;2023-03-14T11:27:18;96286.56;;;2.20;100.00
54936;BME280;40838;50.676;7.838;2023-03-14T11:29:54;96289.75;;;2.07;100.00
54936;BME280;40838;50.676;7.838;2023-03-14T11:32:29;96292.78;;;2.29;100.00
54936;BME280;40838;50.676;7.838;2023-03-14T11:35:02;96308.44;;;2.05;100.00
54936;BME280;40838;50.676;7.838;2023-03-14T11:37:33;96296.00;;;2.16;100.00
54936;BME280;40838;50.676;7.838;2023-03-14T11:40:06;96316.34;;;2.50;100.00
54936;BME280;40838;50.676;7.838;2023-03-14T11:42:38;96320.34;;;1.82;100.00
54936;BME280;40838;50.676;7.838;2023-03-14T11:45:14;96333.72;;;1.81;100.00
54936;BME280;40838;50.676;7.838;2023-03-14T11:47:44;96331.00;;;2.06;100.00
54936;BME280;40838;50.676;7.838;2023-03-14T11:50:16;96351.38;;;1.75;100.00
54936;BME280;40838;50.676;7.838;2023-03-14T11:52:48;96347.38;;;1.83;100.00
54936;BME280;40838;50.676;7.838;2023-03-14T11:55:20;96348.47;;;1.77;100.00
54936;BME280;40838;50.676;7.838;2023-03-14T11:57:56;96343.44;;;1.90;100.00
54936;BME280;40838;50.676;7.838;2023-03-14T12:00:25;96349.28;;;1.67;100.00
54936;BME280;40838;50.676;7.838;2023-03-14T12:02:56;96347.69;;;1.66;100.00
54936;BME280;40838;50.676;7.838;2023-03-14T12:05:43;96353.75;;;1.56;100.00
54936;BME280;40838;50.676;7.838;2023-03-14T12:08:42;96370.47;;;1.81;100.00
54936;BME280;40838;50.676;7.838;2023-03-14T12:11:18;96367.31;;;1.89;100.00
54936;BME280;40838;50.676;7.838;2023-03-14T12:13:49;96381.75;;;1.86;100.00
54936;BME280;40838;50.676;7.838;2023-03-14T12:16:31;96381.84;;;2.41;100.00
54936;BME280;40838;50.676;7.838;2023-03-14T12:21:58;96399.34;;;1.96;100.00
54936;BME280;40838;50.676;7.838;2023-03-14T12:24:29;96393.63;;;1.68;100.00
54936;BME280;40838;50.676;7.838;2023-03-14T12:26:58;96407.72;;;1.98;100.00
54936;BME280;40838;50.676;7.838;2023-03-14T12:29:28;96419.53;;;2.71;100.00
54936;BME280;40838;50.676;7.838;2023-03-14T12:32:21;96429.13;;;2.91;100.00
54936;BME280;40838;50.676;7.838;2023-03-14T12:34:50;96431.13;;;3.09;100.00
54936;BME280;40838;50.676;7.838;2023-03-14T12:37:22;96436.88;;;3.16;100.00
54936;BME280;40838;50.676;7.838;2023-03-14T12:40:00;96431.03;;;3.24;100.00
54936;BME280;40838;50.676;7.838;2023-03-14T12:42:43;96436.00;;;3.26;100.00
54936;BME280;40838;50.676;7.838;2023-03-14T12:45:23;96434.34;;;3.01;100.00
54936;BME280;40838;50.676;7.838;2023-03-14T12:47:53;96456.91;;;2.62;100.00
54936;BME280;40838;50.676;7.838;2023-03-14T12:50:25;96460.50;;;2.07;100.00
54936;BME280;40838;50.676;7.838;2023-03-14T12:56:05;96499.16;;;1.76;100.00
54936;BME280;40838;50.676;7.838;2023-03-14T12:58:44;96516.47;;;1.51;100.00
54936;BME280;40838;50.676;7.838;2023-03-14T13:01:19;96535.91;;;1.50;100.00
54936;BME280;40838;50.676;7.838;2023-03-14T13:03:47;96532.72;;;1.27;100.00
54936;BME280;40838;50.676;7.838;2023-03-14T13:06:44;96534.03;;;1.25;100.00
54936;BME280;40838;50.676;7.838;2023-03-14T13:09:35;96520.69;;;1.52;100.00
54936;BME280;40838;50.676;7.838;2023-03-14T13:12:03;96551.59;;;1.24;100.00
54936;BME280;40838;50.676;7.838;2023-03-14T13:14:40;96565.91;;;0.86;100.00
54936;BME280;40838;50.676;7.838;2023-03-14T13:17:11;96570.25;;;1.33;100.00
54936;BME280;40838;50.676;7.838;2023-03-14T13:19:39;96577.81;;;1.14;100.00
54936;BME280;40838;50.676;7.838;2023-03-14T13:22:15;96586.19;;;1.06;100.00
54936;BME280;40838;50.676;7.838;2023-03-14T13:24:43;96598.59;;;1.36;100.00
54936;BME280;40838;50.676;7.838;2023-03-14T13:27:16;96607.53;;;1.40;100.00
54936;BME280;40838;50.676;7.838;2023-03-14T13:29:44;96606.56;;;1.87;100.00
54936;BME280;40838;50.676;7.838;2023-03-14T13:32:18;96619.44;;;1.99;100.00